sensor_id;sensor_type;location;lat;lon;timestamp;temperature;humidity
55777;DHT22;54079;44.540;18.784;2023-07-13T00:00:26;24.10;77.10
55777;DHT22;54079;44.540;18.784;2023-07-13T00:02:52;24.00;78.20
55777;DHT22;54079;44.540;18.784;2023-07-13T00:05:22;23.90;76.40
55777;DHT22;54079;44.540;18.784;2023-07-13T00:07:51;23.90;76.90
55777;DHT22;54079;44.540;18.784;2023-07-13T00:10:18;23.90;76.60
55777;DHT22;54079;44.540;18.784;2023-07-13T00:12:44;23.60;73.20
55777;DHT22;54079;44.540;18.784;2023-07-13T00:15:22;23.70;75.70
55777;DHT22;54079;44.540;18.784;2023-07-13T00:17:53;23.80;68.90
55777;DHT22;54079;44.540;18.784;2023-07-13T00:20:21;23.90;74.20
55777;DHT22;54079;44.540;18.784;2023-07-13T00:22:48;23.70;73.20
55777;DHT22;54079;44.540;18.784;2023-07-13T00:25:15;23.80;74.80
55777;DHT22;54079;44.540;18.784;2023-07-13T00:27:42;23.80;75.60
55777;DHT22;54079;44.540;18.784;2023-07-13T00:30:09;23.70;75.70
55777;DHT22;54079;44.540;18.784;2023-07-13T00:32:36;23.50;76.20
55777;DHT22;54079;44.540;18.784;2023-07-13T00:35:03;23.30;75.30
55777;DHT22;54079;44.540;18.784;2023-07-13T00:37:30;23.20;78.80
55777;DHT22;54079;44.540;18.784;2023-07-13T00:39:57;23.10;77.40
55777;DHT22;54079;44.540;18.784;2023-07-13T00:42:23;22.80;76.10
55777;DHT22;54079;44.540;18.784;2023-07-13T00:47:40;23.10;77.20
55777;DHT22;54079;44.540;18.784;2023-07-13T00:50:09;23.10;74.80
55777;DHT22;54079;44.540;18.784;2023-07-13T00:52:37;23.10;74.60
55777;DHT22;54079;44.540;18.784;2023-07-13T00:55:04;23.30;73.70
55777;DHT22;54079;44.540;18.784;2023-07-13T00:57:30;23.20;74.50
55777;DHT22;54079;44.540;18.784;2023-07-13T00:59:59;23.20;74.60
55777;DHT22;54079;44.540;18.784;2023-07-13T01:02:27;23.20;73.50
55777;DHT22;54079;44.540;18.784;2023-07-13T01:04:54;23.10;73.10
55777;DHT22;54079;44.540;18.784;2023-07-13T01:07:20;23.10;73.30
55777;DHT22;54079;44.540;18.784;2023-07-13T01:09:46;23.00;77.20
55777;DHT22;54079;44.540;18.784;2023-07-13T01:12:12;23.00;75.50
55777;DHT22;54079;44.540;18.784;2023-07-13T01:14:39;23.00;74.10
55777;DHT22;54079;44.540;18.784;2023-07-13T01:17:09;23.00;73.70
55777;DHT22;54079;44.540;18.784;2023-07-13T01:19:42;23.10;74.20
55777;DHT22;54079;44.540;18.784;2023-07-13T01:22:14;23.10;74.10
55777;DHT22;54079;44.540;18.784;2023-07-13T01:24:45;23.20;73.70
55777;DHT22;54079;44.540;18.784;2023-07-13T01:27:14;23.30;74.00
55777;DHT22;54079;44.540;18.784;2023-07-13T01:29:44;23.20;74.10
55777;DHT22;54079;44.540;18.784;2023-07-13T01:32:15;23.20;74.60
55777;DHT22;54079;44.540;18.784;2023-07-13T01:34:42;23.30;74.80
55777;DHT22;54079;44.540;18.784;2023-07-13T01:37:09;23.30;73.20
55777;DHT22;54079;44.540;18.784;2023-07-13T01:39:35;23.10;73.40
55777;DHT22;54079;44.540;18.784;2023-07-13T01:42:01;22.80;70.80
55777;DHT22;54079;44.540;18.784;2023-07-13T01:44:27;22.90;70.50
55777;DHT22;54079;44.540;18.784;2023-07-13T01:46:53;23.00;72.10
55777;DHT22;54079;44.540;18.784;2023-07-13T01:49:19;23.00;72.00
55777;DHT22;54079;44.540;18.784;2023-07-13T01:51:45;23.00;73.60
55777;DHT22;54079;44.540;18.784;2023-07-13T01:54:11;22.90;73.20
55777;DHT22;54079;44.540;18.784;2023-07-13T01:56:37;22.80;72.70
55777;DHT22;54079;44.540;18.784;2023-07-13T01:59:03;22.90;75.00
55777;DHT22;54079;44.540;18.784;2023-07-13T02:01:29;22.80;74.80
55777;DHT22;54079;44.540;18.784;2023-07-13T02:03:55;22.70;74.20
55777;DHT22;54079;44.540;18.784;2023-07-13T02:06:21;22.40;70.30
55777;DHT22;54079;44.540;18.784;2023-07-13T02:08:47;22.60;72.40
55777;DHT22;54079;44.540;18.784;2023-07-13T02:11:13;22.60;73.00
55777;DHT22;54079;44.540;18.784;2023-07-13T02:13:39;22.50;72.30
55777;DHT22;54079;44.540;18.784;2023-07-13T02:16:05;22.60;72.70
55777;DHT22;54079;44.540;18.784;2023-07-13T02:18:32;22.60;72.30
55777;DHT22;54079;44.540;18.784;2023-07-13T02:20:58;22.50;72.70
55777;DHT22;54079;44.540;18.784;2023-07-13T02:23:24;22.50;71.70
55777;DHT22;54079;44.540;18.784;2023-07-13T02:25:57;22.50;73.90
55777;DHT22;54079;44.540;18.784;2023-07-13T02:28:23;22.50;73.20
55777;DHT22;54079;44.540;18.784;2023-07-13T02:30:49;22.30;73.80
55777;DHT22;54079;44.540;18.784;2023-07-13T02:33:15;22.20;73.70
55777;DHT22;54079;44.540;18.784;2023-07-13T02:35:41;22.40;73.40
55777;DHT22;54079;44.540;18.784;2023-07-13T02:38:07;22.40;73.40
55777;DHT22;54079;44.540;18.784;2023-07-13T02:40:34;22.30;74.30
55777;DHT22;54079;44.540;18.784;2023-07-13T02:43:01;22.40;74.60
55777;DHT22;54079;44.540;18.784;2023-07-13T02:45:27;22.40;73.60
55777;DHT22;54079;44.540;18.784;2023-07-13T02:47:53;22.30;74.50
55777;DHT22;54079;44.540;18.784;2023-07-13T02:50:20;22.30;74.40
55777;DHT22;54079;44.540;18.784;2023-07-13T02:52:46;22.30;73.70
55777;DHT22;54079;44.540;18.784;2023-07-13T02:55:12;22.30;73.90
55777;DHT22;54079;44.540;18.784;2023-07-13T02:57:38;22.40;70.50
55777;DHT22;54079;44.540;18.784;2023-07-13T03:00:05;22.50;72.90
55777;DHT22;54079;44.540;18.784;2023-07-13T03:02:32;22.50;71.20
55777;DHT22;54079;44.540;18.784;2023-07-13T03:04:58;22.60;73.50
55777;DHT22;54079;44.540;18.784;2023-07-13T03:07:24;22.60;72.00
55777;DHT22;54079;44.540;18.784;2023-07-13T03:09:56;22.60;70.70
55777;DHT22;54079;44.540;18.784;2023-07-13T03:12:23;22.70;71.00
55777;DHT22;54079;44.540;18.784;2023-07-13T03:14:49;22.70;69.60
55777;DHT22;54079;44.540;18.784;2023-07-13T03:17:15;23.00;67.20
55777;DHT22;54079;44.540;18.784;2023-07-13T03:19:41;23.20;69.10
55777;DHT22;54079;44.540;18.784;2023-07-13T03:22:07;23.20;69.40
55777;DHT22;54079;44.540;18.784;2023-07-13T03:24:34;23.20;70.80
55777;DHT22;54079;44.540;18.784;2023-07-13T03:27:01;23.10;71.10
55777;DHT22;54079;44.540;18.784;2023-07-13T03:29:27;23.10;69.90
55777;DHT22;54079;44.540;18.784;2023-07-13T03:31:53;23.20;70.90
55777;DHT22;54079;44.540;18.784;2023-07-13T03:34:19;23.10;71.60
55777;DHT22;54079;44.540;18.784;2023-07-13T03:36:45;23.00;70.80
55777;DHT22;54079;44.540;18.784;2023-07-13T03:39:11;23.10;70.10
55777;DHT22;54079;44.540;18.784;2023-07-13T03:41:37;23.30;72.40
55777;DHT22;54079;44.540;18.784;2023-07-13T03:44:04;23.50;72.10
55777;DHT22;54079;44.540;18.784;2023-07-13T03:46:30;23.30;70.70
55777;DHT22;54079;44.540;18.784;2023-07-13T03:48:56;23.30;73.20
55777;DHT22;54079;44.540;18.784;2023-07-13T03:51:23;23.50;72.10
55777;DHT22;54079;44.540;18.784;2023-07-13T03:53:49;23.30;71.70
55777;DHT22;54079;44.540;18.784;2023-07-13T03:56:17;23.60;67.60
55777;DHT22;54079;44.540;18.784;2023-07-13T03:58:48;23.90;65.40
55777;DHT22;54079;44.540;18.784;2023-07-13T04:01:15;24.00;68.60
55777;DHT22;54079;44.540;18.784;2023-07-13T04:03:42;24.20;69.20
55777;DHT22;54079;44.540;18.784;2023-07-13T04:06:17;24.40;71.10
55777;DHT22;54079;44.540;18.784;2023-07-13T04:08:51;24.20;69.40
55777;DHT22;54079;44.540;18.784;2023-07-13T04:11:19;23.90;68.20
55777;DHT22;54079;44.540;18.784;2023-07-13T04:13:45;24.20;69.90
55777;DHT22;54079;44.540;18.784;2023-07-13T04:16:12;24.50;71.00
55777;DHT22;54079;44.540;18.784;2023-07-13T04:18:38;24.30;70.40
55777;DHT22;54079;44.540;18.784;2023-07-13T04:21:04;24.50;70.30
55777;DHT22;54079;44.540;18.784;2023-07-13T04:23:30;25.10;69.80
55777;DHT22;54079;44.540;18.784;2023-07-13T04:25:56;25.30;68.00
55777;DHT22;54079;44.540;18.784;2023-07-13T04:28:24;25.50;70.00
55777;DHT22;54079;44.540;18.784;2023-07-13T04:30:50;25.60;70.60
55777;DHT22;54079;44.540;18.784;2023-07-13T04:33:16;25.80;69.30
55777;DHT22;54079;44.540;18.784;2023-07-13T04:35:43;26.50;69.30
55777;DHT22;54079;44.540;18.784;2023-07-13T04:38:12;27.30;67.30
55777;DHT22;54079;44.540;18.784;2023-07-13T04:40:38;28.00;66.60
55777;DHT22;54079;44.540;18.784;2023-07-13T04:43:04;28.70;66.00
55777;DHT22;54079;44.540;18.784;2023-07-13T04:45:30;29.10;64.80
55777;DHT22;54079;44.540;18.784;2023-07-13T04:47:57;29.40;64.80
55777;DHT22;54079;44.540;18.784;2023-07-13T04:50:23;30.20;63.40
55777;DHT22;54079;44.540;18.784;2023-07-13T04:52:52;29.80;62.30
55777;DHT22;54079;44.540;18.784;2023-07-13T04:55:18;28.90;62.50
55777;DHT22;54079;44.540;18.784;2023-07-13T04:57:45;28.90;63.20
55777;DHT22;54079;44.540;18.784;2023-07-13T05:00:13;30.00;64.00
55777;DHT22;54079;44.540;18.784;2023-07-13T05:02:43;30.60;62.70
55777;DHT22;54079;44.540;18.784;2023-07-13T05:05:10;31.20;60.20
55777;DHT22;54079;44.540;18.784;2023-07-13T05:07:36;30.80;60.90
55777;DHT22;54079;44.540;18.784;2023-07-13T05:10:02;32.00;60.70
55777;DHT22;54079;44.540;18.784;2023-07-13T05:12:30;32.70;60.10
55777;DHT22;54079;44.540;18.784;2023-07-13T05:14:56;33.30;56.60
55777;DHT22;54079;44.540;18.784;2023-07-13T05:17:22;33.90;57.30
55777;DHT22;54079;44.540;18.784;2023-07-13T05:19:48;34.80;55.40
55777;DHT22;54079;44.540;18.784;2023-07-13T05:22:14;35.80;48.80
55777;DHT22;54079;44.540;18.784;2023-07-13T05:24:40;36.30;52.70
55777;DHT22;54079;44.540;18.784;2023-07-13T05:27:06;36.70;52.20
55777;DHT22;54079;44.540;18.784;2023-07-13T05:29:32;36.60;53.60
55777;DHT22;54079;44.540;18.784;2023-07-13T05:31:58;36.10;53.60
55777;DHT22;54079;44.540;18.784;2023-07-13T05:34:24;36.70;52.30
55777;DHT22;54079;44.540;18.784;2023-07-13T05:36:50;37.80;51.70
55777;DHT22;54079;44.540;18.784;2023-07-13T05:39:16;38.90;50.10
55777;DHT22;54079;44.540;18.784;2023-07-13T05:41:42;39.70;50.10
55777;DHT22;54079;44.540;18.784;2023-07-13T05:44:08;40.20;49.80
55777;DHT22;54079;44.540;18.784;2023-07-13T05:46:34;40.50;48.40
55777;DHT22;54079;44.540;18.784;2023-07-13T05:49:01;41.10;49.20
55777;DHT22;54079;44.540;18.784;2023-07-13T05:51:27;41.10;46.50
55777;DHT22;54079;44.540;18.784;2023-07-13T05:53:53;41.40;46.20
55777;DHT22;54079;44.540;18.784;2023-07-13T05:56:19;42.30;46.00
55777;DHT22;54079;44.540;18.784;2023-07-13T05:58:45;42.50;45.90
55777;DHT22;54079;44.540;18.784;2023-07-13T06:01:13;42.70;46.80
55777;DHT22;54079;44.540;18.784;2023-07-13T06:03:40;43.10;43.90
55777;DHT22;54079;44.540;18.784;2023-07-13T06:06:09;43.50;44.40
55777;DHT22;54079;44.540;18.784;2023-07-13T06:08:36;43.60;44.40
55777;DHT22;54079;44.540;18.784;2023-07-13T06:11:15;43.70;43.60
55777;DHT22;54079;44.540;18.784;2023-07-13T06:13:43;44.00;42.30
55777;DHT22;54079;44.540;18.784;2023-07-13T06:16:10;43.80;42.90
55777;DHT22;54079;44.540;18.784;2023-07-13T06:18:37;43.90;42.60
55777;DHT22;54079;44.540;18.784;2023-07-13T06:21:09;43.60;42.40
55777;DHT22;54079;44.540;18.784;2023-07-13T06:23:37;42.10;43.50
55777;DHT22;54079;44.540;18.784;2023-07-13T06:26:04;40.30;44.50
55777;DHT22;54079;44.540;18.784;2023-07-13T06:28:31;39.50;45.70
55777;DHT22;54079;44.540;18.784;2023-07-13T06:30:58;41.40;44.10
55777;DHT22;54079;44.540;18.784;2023-07-13T06:33:25;42.70;43.20
55777;DHT22;54079;44.540;18.784;2023-07-13T06:35:51;43.80;41.60
55777;DHT22;54079;44.540;18.784;2023-07-13T06:38:17;44.30;42.00
55777;DHT22;54079;44.540;18.784;2023-07-13T06:40:43;44.40;42.20
55777;DHT22;54079;44.540;18.784;2023-07-13T06:43:09;44.80;42.40
55777;DHT22;54079;44.540;18.784;2023-07-13T06:45:41;45.10;41.60
55777;DHT22;54079;44.540;18.784;2023-07-13T06:48:07;45.70;41.30
55777;DHT22;54079;44.540;18.784;2023-07-13T06:50:33;46.00;42.00
55777;DHT22;54079;44.540;18.784;2023-07-13T06:53:00;45.80;41.90
55777;DHT22;54079;44.540;18.784;2023-07-13T06:55:26;44.90;40.90
55777;DHT22;54079;44.540;18.784;2023-07-13T06:57:52;44.80;40.70
55777;DHT22;54079;44.540;18.784;2023-07-13T07:00:18;45.10;41.80
55777;DHT22;54079;44.540;18.784;2023-07-13T07:02:44;46.00;43.20
55777;DHT22;54079;44.540;18.784;2023-07-13T07:05:10;47.10;42.50
55777;DHT22;54079;44.540;18.784;2023-07-13T07:07:36;48.40;42.50
55777;DHT22;54079;44.540;18.784;2023-07-13T07:10:02;47.20;42.80
55777;DHT22;54079;44.540;18.784;2023-07-13T07:12:29;45.60;44.50
55777;DHT22;54079;44.540;18.784;2023-07-13T07:14:54;45.30;43.70
55777;DHT22;54079;44.540;18.784;2023-07-13T07:17:20;45.10;43.40
55777;DHT22;54079;44.540;18.784;2023-07-13T07:19:46;46.30;41.80
55777;DHT22;54079;44.540;18.784;2023-07-13T07:22:13;45.10;43.00
55777;DHT22;54079;44.540;18.784;2023-07-13T07:24:39;45.00;43.20
55777;DHT22;54079;44.540;18.784;2023-07-13T07:27:05;45.60;43.30
55777;DHT22;54079;44.540;18.784;2023-07-13T07:29:31;46.40;42.60
55777;DHT22;54079;44.540;18.784;2023-07-13T07:31:58;46.70;41.90
55777;DHT22;54079;44.540;18.784;2023-07-13T07:34:24;46.30;42.00
55777;DHT22;54079;44.540;18.784;2023-07-13T07:36:50;45.20;42.50
55777;DHT22;54079;44.540;18.784;2023-07-13T07:39:15;45.50;42.00
55777;DHT22;54079;44.540;18.784;2023-07-13T07:41:42;46.30;42.30
55777;DHT22;54079;44.540;18.784;2023-07-13T07:44:08;46.10;42.40
55777;DHT22;54079;44.540;18.784;2023-07-13T07:46:35;45.70;42.40
55777;DHT22;54079;44.540;18.784;2023-07-13T07:49:01;45.60;42.30
55777;DHT22;54079;44.540;18.784;2023-07-13T07:51:27;46.30;41.60
55777;DHT22;54079;44.540;18.784;2023-07-13T07:53:54;46.10;41.60
55777;DHT22;54079;44.540;18.784;2023-07-13T07:56:20;46.10;41.80
55777;DHT22;54079;44.540;18.784;2023-07-13T07:58:46;45.80;42.50
55777;DHT22;54079;44.540;18.784;2023-07-13T08:01:12;46.00;42.30
55777;DHT22;54079;44.540;18.784;2023-07-13T08:03:37;47.40;41.80
55777;DHT22;54079;44.540;18.784;2023-07-13T08:06:03;47.60;41.40
55777;DHT22;54079;44.540;18.784;2023-07-13T08:08:29;48.30;41.00
55777;DHT22;54079;44.540;18.784;2023-07-13T08:10:55;48.90;40.60
55777;DHT22;54079;44.540;18.784;2023-07-13T08:13:21;48.50;40.00
55777;DHT22;54079;44.540;18.784;2023-07-13T08:15:47;47.50;41.00
55777;DHT22;54079;44.540;18.784;2023-07-13T08:18:15;49.30;40.20
55777;DHT22;54079;44.540;18.784;2023-07-13T08:20:40;48.70;40.30
55777;DHT22;54079;44.540;18.784;2023-07-13T08:23:07;48.70;39.80
55777;DHT22;54079;44.540;18.784;2023-07-13T08:25:35;50.00;39.70
55777;DHT22;54079;44.540;18.784;2023-07-13T08:28:05;49.40;39.60
55777;DHT22;54079;44.540;18.784;2023-07-13T08:30:30;48.80;40.50
55777;DHT22;54079;44.540;18.784;2023-07-13T08:32:57;48.90;40.00
55777;DHT22;54079;44.540;18.784;2023-07-13T08:35:22;49.10;39.80
55777;DHT22;54079;44.540;18.784;2023-07-13T08:37:48;49.60;39.80
55777;DHT22;54079;44.540;18.784;2023-07-13T08:40:14;50.40;40.00
55777;DHT22;54079;44.540;18.784;2023-07-13T08:42:46;50.20;38.50
55777;DHT22;54079;44.540;18.784;2023-07-13T08:45:22;50.30;39.50
55777;DHT22;54079;44.540;18.784;2023-07-13T08:47:57;49.60;40.00
55777;DHT22;54079;44.540;18.784;2023-07-13T08:50:30;49.80;40.10
55777;DHT22;54079;44.540;18.784;2023-07-13T08:52:57;50.00;39.90
55777;DHT22;54079;44.540;18.784;2023-07-13T08:55:33;49.70;41.70
55777;DHT22;54079;44.540;18.784;2023-07-13T08:58:12;49.10;40.60
55777;DHT22;54079;44.540;18.784;2023-07-13T09:00:48;49.30;39.90
55777;DHT22;54079;44.540;18.784;2023-07-13T09:03:22;47.70;40.60
55777;DHT22;54079;44.540;18.784;2023-07-13T09:05:58;47.20;41.40
55777;DHT22;54079;44.540;18.784;2023-07-13T09:11:29;47.00;42.30
55777;DHT22;54079;44.540;18.784;2023-07-13T09:16:53;42.00;46.90
55777;DHT22;54079;44.540;18.784;2023-07-13T09:19:25;39.50;49.20
55777;DHT22;54079;44.540;18.784;2023-07-13T09:21:55;38.90;51.30
55777;DHT22;54079;44.540;18.784;2023-07-13T09:24:49;38.00;51.50
55777;DHT22;54079;44.540;18.784;2023-07-13T09:27:22;37.20;53.40
55777;DHT22;54079;44.540;18.784;2023-07-13T09:29:54;36.60;54.20
55777;DHT22;54079;44.540;18.784;2023-07-13T09:32:24;36.70;53.50
55777;DHT22;54079;44.540;18.784;2023-07-13T09:34:53;37.10;53.00
55777;DHT22;54079;44.540;18.784;2023-07-13T09:37:22;37.20;53.90
55777;DHT22;54079;44.540;18.784;2023-07-13T09:39:49;37.10;54.80
55777;DHT22;54079;44.540;18.784;2023-07-13T09:42:21;37.10;54.00
55777;DHT22;54079;44.540;18.784;2023-07-13T09:44:55;37.00;54.70
55777;DHT22;54079;44.540;18.784;2023-07-13T09:47:27;37.20;54.00
55777;DHT22;54079;44.540;18.784;2023-07-13T09:50:06;37.30;53.50
55777;DHT22;54079;44.540;18.784;2023-07-13T09:52:47;37.10;55.30
55777;DHT22;54079;44.540;18.784;2023-07-13T09:55:32;37.40;54.30
55777;DHT22;54079;44.540;18.784;2023-07-13T09:58:20;37.50;53.70
55777;DHT22;54079;44.540;18.784;2023-07-13T10:00:59;37.60;55.60
55777;DHT22;54079;44.540;18.784;2023-07-13T10:03:34;37.30;53.70
55777;DHT22;54079;44.540;18.784;2023-07-13T10:08:38;37.10;54.40
55777;DHT22;54079;44.540;18.784;2023-07-13T10:11:11;37.10;54.90
55777;DHT22;54079;44.540;18.784;2023-07-13T10:13:42;36.80;55.50
55777;DHT22;54079;44.540;18.784;2023-07-13T10:16:08;37.00;56.00
55777;DHT22;54079;44.540;18.784;2023-07-13T10:18:46;37.10;57.10
55777;DHT22;54079;44.540;18.784;2023-07-13T10:21:17;36.90;56.70
55777;DHT22;54079;44.540;18.784;2023-07-13T10:23:54;37.30;56.10
55777;DHT22;54079;44.540;18.784;2023-07-13T10:26:31;37.90;55.70
55777;DHT22;54079;44.540;18.784;2023-07-13T10:29:01;37.90;55.30
55777;DHT22;54079;44.540;18.784;2023-07-13T10:31:31;37.60;56.50
55777;DHT22;54079;44.540;18.784;2023-07-13T10:33:57;38.10;54.80
55777;DHT22;54079;44.540;18.784;2023-07-13T10:36:44;38.00;55.10
55777;DHT22;54079;44.540;18.784;2023-07-13T10:39:17;37.10;59.00
55777;DHT22;54079;44.540;18.784;2023-07-13T10:41:46;36.70;59.00
55777;DHT22;54079;44.540;18.784;2023-07-13T10:44:22;37.10;58.30
55777;DHT22;54079;44.540;18.784;2023-07-13T10:46:54;37.00;58.90
55777;DHT22;54079;44.540;18.784;2023-07-13T10:49:21;36.90;58.50
55777;DHT22;54079;44.540;18.784;2023-07-13T10:51:47;36.80;57.60
55777;DHT22;54079;44.540;18.784;2023-07-13T10:54:30;36.40;58.40
55777;DHT22;54079;44.540;18.784;2023-07-13T10:59:43;37.00;58.90
55777;DHT22;54079;44.540;18.784;2023-07-13T11:02:25;36.80;60.10
55777;DHT22;54079;44.540;18.784;2023-07-13T11:04:53;36.50;58.10
55777;DHT22;54079;44.540;18.784;2023-07-13T11:07:26;36.20;58.80
55777;DHT22;54079;44.540;18.784;2023-07-13T11:10:04;36.40;59.40
55777;DHT22;54079;44.540;18.784;2023-07-13T11:12:51;36.70;57.60
55777;DHT22;54079;44.540;18.784;2023-07-13T11:15:33;36.30;58.10
55777;DHT22;54079;44.540;18.784;2023-07-13T11:18:20;36.50;58.10
55777;DHT22;54079;44.540;18.784;2023-07-13T11:20:49;36.40;59.60
55777;DHT22;54079;44.540;18.784;2023-07-13T11:23:17;36.10;59.80
55777;DHT22;54079;44.540;18.784;2023-07-13T11:25:45;36.40;59.00
55777;DHT22;54079;44.540;18.784;2023-07-13T11:34:07;36.40;59.30
55777;DHT22;54079;44.540;18.784;2023-07-13T11:36:19;36.50;59.20
55777;DHT22;54079;44.540;18.784;2023-07-13T11:41:37;36.50;59.10
55777;DHT22;54079;44.540;18.784;2023-07-13T11:44:23;36.40;58.30
55777;DHT22;54079;44.540;18.784;2023-07-13T11:46:54;36.60;58.80
55777;DHT22;54079;44.540;18.784;2023-07-13T11:49:23;36.10;59.40
55777;DHT22;54079;44.540;18.784;2023-07-13T11:51:51;36.20;59.00
55777;DHT22;54079;44.540;18.784;2023-07-13T11:57:06;36.50;58.50
55777;DHT22;54079;44.540;18.784;2023-07-13T11:59:40;36.70;59.10
55777;DHT22;54079;44.540;18.784;2023-07-13T12:02:32;37.10;59.20
55777;DHT22;54079;44.540;18.784;2023-07-13T12:05:00;37.30;58.50
55777;DHT22;54079;44.540;18.784;2023-07-13T12:07:30;36.90;57.70
55777;DHT22;54079;44.540;18.784;2023-07-13T12:12:36;36.40;59.40
55777;DHT22;54079;44.540;18.784;2023-07-13T12:15:12;36.10;59.00
55777;DHT22;54079;44.540;18.784;2023-07-13T12:17:38;36.10;60.10
55777;DHT22;54079;44.540;18.784;2023-07-13T12:20:20;36.20;60.20
55777;DHT22;54079;44.540;18.784;2023-07-13T12:22:48;35.80;61.30
55777;DHT22;54079;44.540;18.784;2023-07-13T12:25:15;35.90;61.40
55777;DHT22;54079;44.540;18.784;2023-07-13T12:27:50;35.90;60.90
55777;DHT22;54079;44.540;18.784;2023-07-13T12:30:28;35.80;60.80
55777;DHT22;54079;44.540;18.784;2023-07-13T12:33:11;35.70;60.60
55777;DHT22;54079;44.540;18.784;2023-07-13T12:35:46;35.30;61.40
55777;DHT22;54079;44.540;18.784;2023-07-13T12:38:12;34.80;62.00
55777;DHT22;54079;44.540;18.784;2023-07-13T12:40:39;35.10;63.00
55777;DHT22;54079;44.540;18.784;2023-07-13T12:43:11;34.90;61.20
55777;DHT22;54079;44.540;18.784;2023-07-13T12:45:38;35.10;61.30
55777;DHT22;54079;44.540;18.784;2023-07-13T12:48:11;35.10;61.00
55777;DHT22;54079;44.540;18.784;2023-07-13T12:50:46;34.80;60.90
55777;DHT22;54079;44.540;18.784;2023-07-13T12:53:16;34.80;62.10
55777;DHT22;54079;44.540;18.784;2023-07-13T12:58:28;34.60;62.60
55777;DHT22;54079;44.540;18.784;2023-07-13T13:00:57;34.20;62.60
55777;DHT22;54079;44.540;18.784;2023-07-13T13:03:35;34.00;63.60
55777;DHT22;54079;44.540;18.784;2023-07-13T13:06:28;34.10;64.10
55777;DHT22;54079;44.540;18.784;2023-07-13T13:08:56;34.10;64.20
55777;DHT22;54079;44.540;18.784;2023-07-13T13:11:24;33.80;64.90
55777;DHT22;54079;44.540;18.784;2023-07-13T13:13:52;33.70;65.30
55777;DHT22;54079;44.540;18.784;2023-07-13T13:16:39;33.50;64.80
55777;DHT22;54079;44.540;18.784;2023-07-13T13:19:20;33.30;64.20
55777;DHT22;54079;44.540;18.784;2023-07-13T13:21:49;33.70;64.90
55777;DHT22;54079;44.540;18.784;2023-07-13T13:24:21;34.00;64.40
55777;DHT22;54079;44.540;18.784;2023-07-13T13:26:48;34.00;64.70
55777;DHT22;54079;44.540;18.784;2023-07-13T13:29:25;33.50;62.60
55777;DHT22;54079;44.540;18.784;2023-07-13T13:31:51;33.50;63.30
55777;DHT22;54079;44.540;18.784;2023-07-13T13:34:18;33.40;63.90
55777;DHT22;54079;44.540;18.784;2023-07-13T13:36:46;33.30;63.00
55777;DHT22;54079;44.540;18.784;2023-07-13T13:41:47;33.30;64.20
55777;DHT22;54079;44.540;18.784;2023-07-13T13:44:15;33.20;64.10
55777;DHT22;54079;44.540;18.784;2023-07-13T13:46:47;33.20;64.20
55777;DHT22;54079;44.540;18.784;2023-07-13T13:49:18;33.10;64.90
55777;DHT22;54079;44.540;18.784;2023-07-13T13:51:45;33.00;65.10
55777;DHT22;54079;44.540;18.784;2023-07-13T13:54:15;33.20;64.60
55777;DHT22;54079;44.540;18.784;2023-07-13T13:56:47;33.30;64.70
55777;DHT22;54079;44.540;18.784;2023-07-13T13:59:13;33.20;64.60
55777;DHT22;54079;44.540;18.784;2023-07-13T14:01:41;33.30;62.90
55777;DHT22;54079;44.540;18.784;2023-07-13T14:04:19;33.50;64.40
55777;DHT22;54079;44.540;18.784;2023-07-13T14:06:46;33.80;63.50
55777;DHT22;54079;44.540;18.784;2023-07-13T14:09:16;34.00;63.50
55777;DHT22;54079;44.540;18.784;2023-07-13T14:11:43;33.90;62.60
55777;DHT22;54079;44.540;18.784;2023-07-13T14:14:23;33.90;64.60
55777;DHT22;54079;44.540;18.784;2023-07-13T14:16:51;33.90;63.90
55777;DHT22;54079;44.540;18.784;2023-07-13T14:19:21;33.90;63.50
55777;DHT22;54079;44.540;18.784;2023-07-13T14:21:47;34.30;64.20
55777;DHT22;54079;44.540;18.784;2023-07-13T14:24:15;34.10;63.70
55777;DHT22;54079;44.540;18.784;2023-07-13T14:26:41;34.30;63.40
55777;DHT22;54079;44.540;18.784;2023-07-13T14:29:14;34.40;64.70
55777;DHT22;54079;44.540;18.784;2023-07-13T14:31:41;34.40;62.10
55777;DHT22;54079;44.540;18.784;2023-07-13T14:34:09;34.30;63.20
55777;DHT22;54079;44.540;18.784;2023-07-13T14:36:52;34.20;62.10
55777;DHT22;54079;44.540;18.784;2023-07-13T14:39:20;34.20;65.70
55777;DHT22;54079;44.540;18.784;2023-07-13T14:41:51;34.30;63.60
55777;DHT22;54079;44.540;18.784;2023-07-13T14:44:23;34.50;64.30
55777;DHT22;54079;44.540;18.784;2023-07-13T14:46:51;34.60;63.80
55777;DHT22;54079;44.540;18.784;2023-07-13T14:52:05;34.40;68.40
55777;DHT22;54079;44.540;18.784;2023-07-13T14:54:36;34.30;67.50
55777;DHT22;54079;44.540;18.784;2023-07-13T14:57:10;34.40;67.90
55777;DHT22;54079;44.540;18.784;2023-07-13T14:59:36;34.50;66.00
55777;DHT22;54079;44.540;18.784;2023-07-13T15:02:02;34.50;64.80
55777;DHT22;54079;44.540;18.784;2023-07-13T15:04:29;34.70;64.10
55777;DHT22;54079;44.540;18.784;2023-07-13T15:06:57;35.10;65.00
55777;DHT22;54079;44.540;18.784;2023-07-13T15:09:25;34.70;66.80
55777;DHT22;54079;44.540;18.784;2023-07-13T15:11:55;34.60;66.00
55777;DHT22;54079;44.540;18.784;2023-07-13T15:14:21;34.40;66.50
55777;DHT22;54079;44.540;18.784;2023-07-13T15:16:49;34.40;67.50
55777;DHT22;54079;44.540;18.784;2023-07-13T15:19:18;34.60;66.40
55777;DHT22;54079;44.540;18.784;2023-07-13T15:21:44;34.80;66.00
55777;DHT22;54079;44.540;18.784;2023-07-13T15:24:10;34.80;65.10
55777;DHT22;54079;44.540;18.784;2023-07-13T15:26:37;34.80;65.30
55777;DHT22;54079;44.540;18.784;2023-07-13T15:29:05;34.80;64.60
55777;DHT22;54079;44.540;18.784;2023-07-13T15:31:32;34.50;64.70
55777;DHT22;54079;44.540;18.784;2023-07-13T15:33:59;34.30;65.00
55777;DHT22;54079;44.540;18.784;2023-07-13T15:36:26;34.20;66.00
55777;DHT22;54079;44.540;18.784;2023-07-13T15:38:54;34.00;66.10
55777;DHT22;54079;44.540;18.784;2023-07-13T15:41:26;33.90;66.70
55777;DHT22;54079;44.540;18.784;2023-07-13T15:43:55;33.90;68.00
55777;DHT22;54079;44.540;18.784;2023-07-13T15:46:22;33.60;68.80
55777;DHT22;54079;44.540;18.784;2023-07-13T15:48:49;33.70;68.10
55777;DHT22;54079;44.540;18.784;2023-07-13T15:51:23;33.90;67.90
55777;DHT22;54079;44.540;18.784;2023-07-13T15:53:49;33.80;68.70
55777;DHT22;54079;44.540;18.784;2023-07-13T15:56:26;33.50;67.30
55777;DHT22;54079;44.540;18.784;2023-07-13T15:58:53;33.60;68.20
55777;DHT22;54079;44.540;18.784;2023-07-13T16:01:22;33.40;66.90